Blidosund — SDKG — position and weather

sailwx.info

Track history (hours):
 
Tides and Currents Weather Stations Pressure Air Temp Water Temp Dewpoint Dewpoint Depression Visibility Wind Speed Wind Dir Waves Ship Positions

Blidosund

Last reported at 2014-Nov-28 11:33 UTC. Time now 2014-Nov-28 12:15 UTC.
Position N 59°20' E 018°05'.

Length 35 m; draft 3 m.

Type: Passenger vessel. MMSI: 265522680.

Date/timePositionNaut miles runAvg speedWind from/ knotsBaromVisibWave heightAir tempDewpointWater temp
2014-Nov-28 11:33N 59°20' E 018°05'0 0.0
2014-Nov-28 10:33N 59°20' E 018°05'0 0.0
2014-Nov-28 09:33N 59°20' E 018°05'0 0.0
2014-Nov-28 08:33N 59°20' E 018°05'0 0.0
2014-Nov-28 07:33N 59°20' E 018°05'0 0.0
2014-Nov-28 06:33N 59°20' E 018°05'0 0.0
2014-Nov-28 05:33N 59°20' E 018°05'0 0.0
2014-Nov-28 04:33N 59°20' E 018°05'0 0.0
2014-Nov-28 03:33N 59°20' E 018°05'0 0.0
2014-Nov-28 02:33N 59°20' E 018°05'0 0.0
2014-Nov-28 01:33N 59°20' E 018°05'0 0.0
2014-Nov-28 00:33N 59°20' E 018°05'0 0.0
2014-Nov-27 23:33N 59°20' E 018°05'0 0.0
2014-Nov-27 22:33N 59°20' E 018°05'0 0.0
2014-Nov-27 21:33N 59°20' E 018°05'0 0.0
2014-Nov-27 20:33N 59°20' E 018°05'0 0.0
2014-Nov-27 19:33N 59°20' E 018°05'0 0.0
2014-Nov-27 18:32N 59°20' E 018°05'0 0.0
2014-Nov-27 17:32N 59°20' E 018°05'0 0.0
2014-Nov-27 16:32N 59°20' E 018°05'0 0.0
2014-Nov-27 15:31N 59°20' E 018°05'0 0.0
2014-Nov-27 14:31N 59°20' E 018°05'0 0.0
2014-Nov-27 13:33N 59°20' E 018°05'0 0.0
2014-Nov-27 12:33N 59°20' E 018°05'0 0.0
2014-Nov-27 11:33N 59°20' E 018°05'0 0.0
2014-Nov-27 10:33N 59°20' E 018°05'0 0.0
2014-Nov-27 09:33N 59°20' E 018°05'0 0.0
2014-Nov-27 08:32N 59°20' E 018°05'0 0.0
2014-Nov-27 07:32N 59°20' E 018°05'0 0.0
2014-Nov-27 06:31N 59°20' E 018°05'0 0.0
2014-Nov-27 05:33N 59°20' E 018°05'0 0.0
2014-Nov-27 04:33N 59°20' E 018°05'0 0.0
2014-Nov-27 03:32N 59°20' E 018°05'0 0.0
2014-Nov-27 02:32N 59°20' E 018°05'0 0.0
2014-Nov-27 01:33N 59°20' E 018°05'0 0.0
2014-Nov-27 00:33N 59°20' E 018°05'0 0.0
2014-Nov-26 23:33N 59°20' E 018°05'0 0.0
2014-Nov-26 22:33N 59°20' E 018°05'0 0.0
2014-Nov-26 21:33N 59°20' E 018°05'2 1.5
2014-Nov-26 20:32N 59°19' E 018°07'4 4.4
2014-Nov-26 19:32N 59°19' E 017°59'2 1.7
2014-Nov-26 18:32N 59°18' E 017°56'5 5.1
2014-Nov-26 17:33N 59°18' E 018°06'1 1.4
2014-Nov-26 16:33N 59°20' E 018°05'0 0.0
2014-Nov-26 15:32N 59°20' E 018°05'0 0.0
2014-Nov-26 14:32N 59°20' E 018°05'0 0.0
2014-Nov-26 13:32N 59°20' E 018°05'0 0.0
2014-Nov-26 12:33N 59°20' E 018°05'0 0.0
2014-Nov-26 11:33N 59°20' E 018°05'0 0.0
2014-Nov-26 10:33N 59°20' E 018°05'0 0.0
2014-Nov-26 09:32N 59°20' E 018°05'0 0.0
2014-Nov-26 08:32N 59°20' E 018°05'0 0.0
2014-Nov-26 07:32N 59°20' E 018°05'0 0.0
2014-Nov-26 06:32N 59°20' E 018°05'0 0.0
2014-Nov-26 05:32N 59°20' E 018°05'0 0.0
2014-Nov-26 04:33N 59°20' E 018°05'0 0.0
2014-Nov-26 03:33N 59°20' E 018°05'0 0.0
2014-Nov-26 02:33N 59°20' E 018°05'0 0.0
2014-Nov-26 01:33N 59°20' E 018°05'0 0.0
2014-Nov-26 00:33N 59°20' E 018°05'0 0.0
2014-Nov-25 23:33N 59°20' E 018°05'0 0.0
2014-Nov-25 22:32N 59°20' E 018°05'0 0.0
2014-Nov-25 21:33N 59°20' E 018°05'0 0.0
2014-Nov-25 20:33N 59°20' E 018°05'0 0.0
2014-Nov-25 19:33N 59°20' E 018°05'0 0.0
2014-Nov-25 18:33N 59°20' E 018°05'0 0.0
2014-Nov-25 17:33N 59°20' E 018°05'0 0.0
2014-Nov-25 16:33N 59°20' E 018°05'0 0.0
2014-Nov-25 15:33N 59°20' E 018°05'0 0.0
2014-Nov-25 14:33N 59°20' E 018°05'0 0.0
2014-Nov-25 13:32N 59°20' E 018°05'0 0.0
2014-Nov-25 12:33N 59°20' E 018°05'0 0.0
2014-Nov-25 11:33N 59°20' E 018°05'0 0.0
2014-Nov-25 10:33N 59°20' E 018°05'0 0.0
2014-Nov-25 09:33N 59°20' E 018°05'0 0.0
2014-Nov-25 08:32N 59°20' E 018°05'0 0.0
2014-Nov-25 07:32N 59°20' E 018°05'0 0.0
2014-Nov-25 06:32N 59°20' E 018°05'0 0.0
2014-Nov-25 05:29N 59°20' E 018°05'0 0.0
2014-Nov-25 04:29N 59°20' E 018°05'0 0.0
2014-Nov-25 03:31N 59°20' E 018°05'0 0.0
2014-Nov-25 02:33N 59°20' E 018°05'0 0.0
2014-Nov-25 01:33N 59°20' E 018°05'0 0.0
2014-Nov-25 00:33N 59°20' E 018°05'0 0.0
2014-Nov-24 23:32N 59°20' E 018°05'0 0.0
2014-Nov-24 22:32N 59°20' E 018°05'0 0.0
2014-Nov-24 21:31N 59°20' E 018°05'0 0.0
2014-Nov-24 20:33N 59°20' E 018°05'0 0.0
2014-Nov-24 19:33N 59°20' E 018°05'0 0.0
2014-Nov-24 18:32N 59°20' E 018°05'0 0.0
2014-Nov-24 17:32N 59°20' E 018°05'0 0.0
2014-Nov-24 16:33N 59°20' E 018°05'0 0.0
2014-Nov-24 15:32N 59°20' E 018°05'0 0.0
2014-Nov-24 14:32N 59°20' E 018°05'0 0.0
2014-Nov-24 13:33N 59°20' E 018°05'0 0.0
2014-Nov-24 12:32N 59°20' E 018°05'0 0.0
2014-Nov-24 11:32N 59°20' E 018°05'0 0.0
2014-Nov-24 10:33N 59°20' E 018°05'0 0.0
2014-Nov-24 09:33N 59°20' E 018°05'0 0.0
2014-Nov-24 08:32N 59°20' E 018°05'0 0.0
2014-Nov-24 07:32N 59°20' E 018°05'0 0.0
2014-Nov-24 06:33N 59°20' E 018°05'0 0.0
2014-Nov-24 05:33N 59°20' E 018°05'0 0.0
2014-Nov-24 04:33N 59°20' E 018°05'0 0.0
2014-Nov-24 03:33N 59°20' E 018°05'0 0.0
2014-Nov-24 02:33N 59°20' E 018°05'0 0.0
2014-Nov-24 01:32N 59°20' E 018°05'0 0.0
2014-Nov-24 00:33N 59°20' E 018°05'0 0.0
2014-Nov-23 23:33N 59°20' E 018°05'0 0.0
2014-Nov-23 22:33N 59°20' E 018°05'0 0.0
2014-Nov-23 21:33N 59°20' E 018°05'0 0.0
2014-Nov-23 20:32N 59°20' E 018°05'0 0.0
2014-Nov-23 19:32N 59°20' E 018°05'0 0.0
2014-Nov-23 18:33N 59°20' E 018°05'0 0.0
2014-Nov-23 17:33N 59°20' E 018°05'0 0.0
2014-Nov-23 16:33N 59°20' E 018°05'0 0.0
2014-Nov-23 15:33N 59°20' E 018°05'0 0.0
2014-Nov-23 14:33N 59°20' E 018°05'0 0.0
2014-Nov-23 13:33N 59°20' E 018°05'0 0.0
2014-Nov-23 12:33N 59°20' E 018°05'0 0.0
2014-Nov-23 11:33N 59°20' E 018°05'0 0.0
2014-Nov-23 10:32N 59°20' E 018°05'0 0.0
2014-Nov-23 09:32N 59°20' E 018°05'0 0.0
2014-Nov-23 08:32N 59°20' E 018°05'0 0.0
2014-Nov-23 07:30N 59°20' E 018°05'0 0.0
2014-Nov-23 06:32N 59°20' E 018°05'0 0.0
2014-Nov-23 05:32N 59°20' E 018°05'0 0.0
2014-Nov-23 04:32N 59°20' E 018°05'0 0.0
2014-Nov-23 03:33N 59°20' E 018°05'0 0.0
2014-Nov-23 02:33N 59°20' E 018°05'0 0.0
2014-Nov-23 01:33N 59°20' E 018°05'0 0.0
2014-Nov-23 00:33N 59°20' E 018°05'0 0.0
2014-Nov-22 23:33N 59°20' E 018°05'0 0.0
2014-Nov-22 22:32N 59°20' E 018°05'0 0.0
2014-Nov-22 21:32N 59°20' E 018°05'0 0.0
2014-Nov-22 20:32N 59°20' E 018°05'0 0.0
2014-Nov-22 19:32N 59°20' E 018°05'0 0.0
2014-Nov-22 18:31N 59°20' E 018°05'0 0.0
2014-Nov-22 17:33N 59°20' E 018°05'0 0.0
2014-Nov-22 16:33N 59°20' E 018°05'0 0.0
2014-Nov-22 15:32N 59°20' E 018°05'0 0.0
2014-Nov-22 14:33N 59°20' E 018°05'0 0.0
2014-Nov-22 13:32N 59°20' E 018°05'0 0.0
2014-Nov-22 12:32N 59°20' E 018°05'0 0.0
2014-Nov-22 11:33N 59°20' E 018°05'0 0.0
2014-Nov-22 10:33N 59°20' E 018°05'0 0.0
2014-Nov-22 09:33N 59°20' E 018°05'0 0.0
2014-Nov-22 08:32N 59°20' E 018°05'0 0.0
2014-Nov-22 07:32N 59°20' E 018°05'0 0.0
2014-Nov-22 06:32N 59°20' E 018°05'0 0.0
2014-Nov-22 05:32N 59°20' E 018°05'0 0.0
2014-Nov-22 04:31N 59°20' E 018°05'0 0.0
2014-Nov-22 03:33N 59°20' E 018°05'0 0.0
2014-Nov-22 02:33N 59°20' E 018°05'0 0.0
2014-Nov-22 01:33N 59°20' E 018°05'0 0.0
2014-Nov-22 00:32N 59°20' E 018°05'0 0.0
2014-Nov-21 23:33N 59°20' E 018°05'0 0.0
2014-Nov-21 22:33N 59°20' E 018°05'0 0.0
2014-Nov-21 21:32N 59°20' E 018°05'0 0.0
2014-Nov-21 20:33N 59°20' E 018°05'0 0.0
2014-Nov-21 19:33N 59°20' E 018°05'0 0.0
2014-Nov-21 18:33N 59°20' E 018°05'0 0.0
2014-Nov-21 17:32N 59°20' E 018°05'0 0.0
2014-Nov-21 16:32N 59°20' E 018°05'0 0.0
2014-Nov-21 15:33N 59°20' E 018°05'0 0.0
2014-Nov-21 14:33N 59°20' E 018°05'0 0.0
2014-Nov-21 13:33N 59°20' E 018°05'0 0.0
2014-Nov-21 12:33N 59°20' E 018°05'0 0.0
2014-Nov-21 11:33N 59°20' E 018°05'0 0.0
2014-Nov-21 10:32N 59°20' E 018°05'0 0.0
2014-Nov-21 09:33N 59°20' E 018°05'0 0.0
2014-Nov-21 08:32N 59°20' E 018°05'0 0.0
2014-Nov-21 07:33N 59°20' E 018°05'0 0.0
2014-Nov-21 06:33N 59°20' E 018°05'0 0.0
2014-Nov-21 05:31N 59°20' E 018°05'0 0.0
2014-Nov-21 04:32N 59°20' E 018°05'0 0.0
2014-Nov-21 03:32N 59°20' E 018°05'0 0.0
2014-Nov-21 02:32N 59°20' E 018°05'0 0.0
2014-Nov-21 01:33N 59°20' E 018°05'0 0.0
2014-Nov-21 00:33N 59°20' E 018°05'0 0.0
2014-Nov-20 23:32N 59°20' E 018°05'0 0.0
2014-Nov-20 22:32N 59°20' E 018°05'0 0.0
2014-Nov-20 21:33N 59°20' E 018°05'0 0.0
2014-Nov-20 20:33N 59°20' E 018°05'0 0.0
2014-Nov-20 19:33N 59°20' E 018°05'0 0.0
2014-Nov-20 18:33N 59°20' E 018°05'0 0.0
2014-Nov-20 17:33N 59°20' E 018°05'0 0.0
2014-Nov-20 16:33N 59°20' E 018°05'0 0.0
2014-Nov-20 15:33N 59°20' E 018°05'0 0.0
2014-Nov-20 14:32N 59°20' E 018°05'0 0.0
2014-Nov-20 13:32N 59°20' E 018°05'0 0.0
2014-Nov-20 12:33N 59°20' E 018°05'0 0.0
2014-Nov-20 11:33N 59°20' E 018°05'0 0.0
2014-Nov-20 10:33N 59°20' E 018°05'0 0.0
2014-Nov-20 09:33N 59°20' E 018°05'0 0.0
2014-Nov-20 08:33N 59°20' E 018°05'0 0.0
2014-Nov-20 07:33N 59°20' E 018°05'0 0.0
2014-Nov-20 06:31N 59°20' E 018°05'0 0.0
2014-Nov-20 05:33N 59°20' E 018°05'0 0.0
2014-Nov-20 04:33N 59°20' E 018°05'0 0.0
2014-Nov-20 03:33N 59°20' E 018°05'0 0.0
2014-Nov-20 02:33N 59°20' E 018°05'0 0.0
2014-Nov-20 01:33N 59°20' E 018°05'0 0.0
2014-Nov-20 00:33N 59°20' E 018°05'0 0.0
2014-Nov-19 23:33N 59°20' E 018°05'0 0.0
2014-Nov-19 22:33N 59°20' E 018°05'0 0.0
2014-Nov-19 21:33N 59°20' E 018°05'0 0.0
2014-Nov-19 20:33N 59°20' E 018°05'0 0.0
2014-Nov-19 19:32N 59°20' E 018°05'0 0.0
2014-Nov-19 18:33N 59°20' E 018°05'0 0.0
2014-Nov-19 17:33N 59°20' E 018°05'0 0.0
2014-Nov-19 16:33N 59°20' E 018°05'0 0.0
2014-Nov-19 15:33N 59°20' E 018°05'0 0.0
2014-Nov-19 14:33N 59°20' E 018°05'0 0.0
2014-Nov-19 13:33N 59°20' E 018°05'0 0.0
2014-Nov-19 12:33N 59°20' E 018°05'0 0.0
2014-Nov-19 11:33N 59°20' E 018°05'0 0.0
2014-Nov-19 10:33N 59°20' E 018°05'0 0.0
2014-Nov-19 09:32N 59°20' E 018°05'0 0.0
2014-Nov-19 08:33N 59°20' E 018°05'0 0.0
2014-Nov-19 07:33N 59°20' E 018°05'0 0.0
2014-Nov-19 06:33N 59°20' E 018°05'0 0.0
2014-Nov-19 05:33N 59°20' E 018°05'0 0.0
2014-Nov-19 04:33N 59°20' E 018°05'0 0.0
2014-Nov-19 03:33N 59°20' E 018°05'0 0.0
2014-Nov-19 02:33N 59°20' E 018°05'0 0.0
2014-Nov-19 01:32N 59°20' E 018°05'0 0.0
2014-Nov-19 00:32N 59°20' E 018°05'0 0.0
2014-Nov-18 23:33N 59°20' E 018°05'0 0.0
2014-Nov-18 22:33N 59°20' E 018°05'0 0.0
2014-Nov-18 21:33N 59°20' E 018°05'0 0.0
2014-Nov-18 20:33N 59°20' E 018°05'0 0.0
2014-Nov-18 19:32N 59°20' E 018°05'0 0.0
2014-Nov-18 18:33N 59°20' E 018°05'0 0.0
2014-Nov-18 17:33N 59°20' E 018°05'0 0.0
2014-Nov-18 16:32N 59°20' E 018°05'0 0.0
2014-Nov-18 15:33N 59°20' E 018°05'0 0.0
2014-Nov-18 14:33N 59°20' E 018°05'0 0.0
2014-Nov-18 13:33N 59°20' E 018°05'0 0.0
2014-Nov-18 12:33N 59°20' E 018°05'  
Track history (hours):
 
Tides and Currents Weather Stations Pressure Air Temp Water Temp Dewpoint Dewpoint Depression Visibility Wind Speed Wind Dir Waves Ship Positions

Blidosund

Last reported at 2014-Nov-28 11:33 UTC. Time now 2014-Nov-28 12:15 UTC.
Position N 59°20' E 018°05'.

Length 35 m; draft 3 m.

Type: Passenger vessel. MMSI: 265522680.

Date/timePositionNaut miles runAvg speedWind from/ knotsBaromVisibWave heightAir tempDewpointWater temp
2014-Nov-28 11:33N 59°20' E 018°05'0 0.0
2014-Nov-28 10:33N 59°20' E 018°05'0 0.0
2014-Nov-28 09:33N 59°20' E 018°05'0 0.0
2014-Nov-28 08:33N 59°20' E 018°05'0 0.0
2014-Nov-28 07:33N 59°20' E 018°05'0 0.0
2014-Nov-28 06:33N 59°20' E 018°05'0 0.0
2014-Nov-28 05:33N 59°20' E 018°05'0 0.0
2014-Nov-28 04:33N 59°20' E 018°05'0 0.0
2014-Nov-28 03:33N 59°20' E 018°05'0 0.0
2014-Nov-28 02:33N 59°20' E 018°05'0 0.0
2014-Nov-28 01:33N 59°20' E 018°05'0 0.0
2014-Nov-28 00:33N 59°20' E 018°05'0 0.0
2014-Nov-27 23:33N 59°20' E 018°05'0 0.0
2014-Nov-27 22:33N 59°20' E 018°05'0 0.0
2014-Nov-27 21:33N 59°20' E 018°05'0 0.0
2014-Nov-27 20:33N 59°20' E 018°05'0 0.0
2014-Nov-27 19:33N 59°20' E 018°05'0 0.0
2014-Nov-27 18:32N 59°20' E 018°05'0 0.0
2014-Nov-27 17:32N 59°20' E 018°05'0 0.0
2014-Nov-27 16:32N 59°20' E 018°05'0 0.0
2014-Nov-27 15:31N 59°20' E 018°05'0 0.0
2014-Nov-27 14:31N 59°20' E 018°05'0 0.0
2014-Nov-27 13:33N 59°20' E 018°05'0 0.0
2014-Nov-27 12:33N 59°20' E 018°05'0 0.0
2014-Nov-27 11:33N 59°20' E 018°05'0 0.0
2014-Nov-27 10:33N 59°20' E 018°05'0 0.0
2014-Nov-27 09:33N 59°20' E 018°05'0 0.0
2014-Nov-27 08:32N 59°20' E 018°05'0 0.0
2014-Nov-27 07:32N 59°20' E 018°05'0 0.0
2014-Nov-27 06:31N 59°20' E 018°05'0 0.0
2014-Nov-27 05:33N 59°20' E 018°05'0 0.0
2014-Nov-27 04:33N 59°20' E 018°05'0 0.0
2014-Nov-27 03:32N 59°20' E 018°05'0 0.0
2014-Nov-27 02:32N 59°20' E 018°05'0 0.0
2014-Nov-27 01:33N 59°20' E 018°05'0 0.0
2014-Nov-27 00:33N 59°20' E 018°05'0 0.0
2014-Nov-26 23:33N 59°20' E 018°05'0 0.0
2014-Nov-26 22:33N 59°20' E 018°05'0 0.0
2014-Nov-26 21:33N 59°20' E 018°05'2 1.5
2014-Nov-26 20:32N 59°19' E 018°07'4 4.4
2014-Nov-26 19:32N 59°19' E 017°59'2 1.7
2014-Nov-26 18:32N 59°18' E 017°56'5 5.1
2014-Nov-26 17:33N 59°18' E 018°06'1 1.4
2014-Nov-26 16:33N 59°20' E 018°05'0 0.0
2014-Nov-26 15:32N 59°20' E 018°05'0 0.0
2014-Nov-26 14:32N 59°20' E 018°05'0 0.0
2014-Nov-26 13:32N 59°20' E 018°05'0 0.0
2014-Nov-26 12:33N 59°20' E 018°05'0 0.0
2014-Nov-26 11:33N 59°20' E 018°05'0 0.0
2014-Nov-26 10:33N 59°20' E 018°05'0 0.0
2014-Nov-26 09:32N 59°20' E 018°05'0 0.0
2014-Nov-26 08:32N 59°20' E 018°05'0 0.0
2014-Nov-26 07:32N 59°20' E 018°05'0 0.0
2014-Nov-26 06:32N 59°20' E 018°05'0 0.0
2014-Nov-26 05:32N 59°20' E 018°05'0 0.0
2014-Nov-26 04:33N 59°20' E 018°05'0 0.0
2014-Nov-26 03:33N 59°20' E 018°05'0 0.0
2014-Nov-26 02:33N 59°20' E 018°05'0 0.0
2014-Nov-26 01:33N 59°20' E 018°05'0 0.0
2014-Nov-26 00:33N 59°20' E 018°05'0 0.0
2014-Nov-25 23:33N 59°20' E 018°05'0 0.0
2014-Nov-25 22:32N 59°20' E 018°05'0 0.0
2014-Nov-25 21:33N 59°20' E 018°05'0 0.0
2014-Nov-25 20:33N 59°20' E 018°05'0 0.0
2014-Nov-25 19:33N 59°20' E 018°05'0 0.0
2014-Nov-25 18:33N 59°20' E 018°05'0 0.0
2014-Nov-25 17:33N 59°20' E 018°05'0 0.0
2014-Nov-25 16:33N 59°20' E 018°05'0 0.0
2014-Nov-25 15:33N 59°20' E 018°05'0 0.0
2014-Nov-25 14:33N 59°20' E 018°05'0 0.0
2014-Nov-25 13:32N 59°20' E 018°05'0 0.0
2014-Nov-25 12:33N 59°20' E 018°05'0 0.0
2014-Nov-25 11:33N 59°20' E 018°05'0 0.0
2014-Nov-25 10:33N 59°20' E 018°05'0 0.0
2014-Nov-25 09:33N 59°20' E 018°05'0 0.0
2014-Nov-25 08:32N 59°20' E 018°05'0 0.0
2014-Nov-25 07:32N 59°20' E 018°05'0 0.0
2014-Nov-25 06:32N 59°20' E 018°05'0 0.0
2014-Nov-25 05:29N 59°20' E 018°05'0 0.0
2014-Nov-25 04:29N 59°20' E 018°05'0 0.0
2014-Nov-25 03:31N 59°20' E 018°05'0 0.0
2014-Nov-25 02:33N 59°20' E 018°05'0 0.0
2014-Nov-25 01:33N 59°20' E 018°05'0 0.0
2014-Nov-25 00:33N 59°20' E 018°05'0 0.0
2014-Nov-24 23:32N 59°20' E 018°05'0 0.0
2014-Nov-24 22:32N 59°20' E 018°05'0 0.0
2014-Nov-24 21:31N 59°20' E 018°05'0 0.0
2014-Nov-24 20:33N 59°20' E 018°05'0 0.0
2014-Nov-24 19:33N 59°20' E 018°05'0 0.0
2014-Nov-24 18:32N 59°20' E 018°05'0 0.0
2014-Nov-24 17:32N 59°20' E 018°05'0 0.0
2014-Nov-24 16:33N 59°20' E 018°05'0 0.0
2014-Nov-24 15:32N 59°20' E 018°05'0 0.0
2014-Nov-24 14:32N 59°20' E 018°05'0 0.0
2014-Nov-24 13:33N 59°20' E 018°05'0 0.0
2014-Nov-24 12:32N 59°20' E 018°05'0 0.0
2014-Nov-24 11:32N 59°20' E 018°05'0 0.0
2014-Nov-24 10:33N 59°20' E 018°05'0 0.0
2014-Nov-24 09:33N 59°20' E 018°05'0 0.0
2014-Nov-24 08:32N 59°20' E 018°05'0 0.0
2014-Nov-24 07:32N 59°20' E 018°05'0 0.0
2014-Nov-24 06:33N 59°20' E 018°05'0 0.0
2014-Nov-24 05:33N 59°20' E 018°05'0 0.0
2014-Nov-24 04:33N 59°20' E 018°05'0 0.0
2014-Nov-24 03:33N 59°20' E 018°05'0 0.0
2014-Nov-24 02:33N 59°20' E 018°05'0 0.0
2014-Nov-24 01:32N 59°20' E 018°05'0 0.0
2014-Nov-24 00:33N 59°20' E 018°05'0 0.0
2014-Nov-23 23:33N 59°20' E 018°05'0 0.0
2014-Nov-23 22:33N 59°20' E 018°05'0 0.0
2014-Nov-23 21:33N 59°20' E 018°05'0 0.0
2014-Nov-23 20:32N 59°20' E 018°05'0 0.0
2014-Nov-23 19:32N 59°20' E 018°05'0 0.0
2014-Nov-23 18:33N 59°20' E 018°05'0 0.0
2014-Nov-23 17:33N 59°20' E 018°05'0 0.0
2014-Nov-23 16:33N 59°20' E 018°05'0 0.0
2014-Nov-23 15:33N 59°20' E 018°05'0 0.0
2014-Nov-23 14:33N 59°20' E 018°05'0 0.0
2014-Nov-23 13:33N 59°20' E 018°05'0 0.0
2014-Nov-23 12:33N 59°20' E 018°05'0 0.0
2014-Nov-23 11:33N 59°20' E 018°05'0 0.0
2014-Nov-23 10:32N 59°20' E 018°05'0 0.0
2014-Nov-23 09:32N 59°20' E 018°05'0 0.0
2014-Nov-23 08:32N 59°20' E 018°05'0 0.0
2014-Nov-23 07:30N 59°20' E 018°05'0 0.0
2014-Nov-23 06:32N 59°20' E 018°05'0 0.0
2014-Nov-23 05:32N 59°20' E 018°05'0 0.0
2014-Nov-23 04:32N 59°20' E 018°05'0 0.0
2014-Nov-23 03:33N 59°20' E 018°05'0 0.0
2014-Nov-23 02:33N 59°20' E 018°05'0 0.0
2014-Nov-23 01:33N 59°20' E 018°05'0 0.0
2014-Nov-23 00:33N 59°20' E 018°05'0 0.0
2014-Nov-22 23:33N 59°20' E 018°05'0 0.0
2014-Nov-22 22:32N 59°20' E 018°05'0 0.0
2014-Nov-22 21:32N 59°20' E 018°05'0 0.0
2014-Nov-22 20:32N 59°20' E 018°05'0 0.0
2014-Nov-22 19:32N 59°20' E 018°05'0 0.0
2014-Nov-22 18:31N 59°20' E 018°05'0 0.0
2014-Nov-22 17:33N 59°20' E 018°05'0 0.0
2014-Nov-22 16:33N 59°20' E 018°05'0 0.0
2014-Nov-22 15:32N 59°20' E 018°05'0 0.0
2014-Nov-22 14:33N 59°20' E 018°05'0 0.0
2014-Nov-22 13:32N 59°20' E 018°05'0 0.0
2014-Nov-22 12:32N 59°20' E 018°05'0 0.0
2014-Nov-22 11:33N 59°20' E 018°05'0 0.0
2014-Nov-22 10:33N 59°20' E 018°05'0 0.0
2014-Nov-22 09:33N 59°20' E 018°05'0 0.0
2014-Nov-22 08:32N 59°20' E 018°05'0 0.0
2014-Nov-22 07:32N 59°20' E 018°05'0 0.0
2014-Nov-22 06:32N 59°20' E 018°05'0 0.0
2014-Nov-22 05:32N 59°20' E 018°05'0 0.0
2014-Nov-22 04:31N 59°20' E 018°05'0 0.0
2014-Nov-22 03:33N 59°20' E 018°05'0 0.0
2014-Nov-22 02:33N 59°20' E 018°05'0 0.0
2014-Nov-22 01:33N 59°20' E 018°05'0 0.0
2014-Nov-22 00:32N 59°20' E 018°05'0 0.0
2014-Nov-21 23:33N 59°20' E 018°05'0 0.0
2014-Nov-21 22:33N 59°20' E 018°05'0 0.0
2014-Nov-21 21:32N 59°20' E 018°05'0 0.0
2014-Nov-21 20:33N 59°20' E 018°05'0 0.0
2014-Nov-21 19:33N 59°20' E 018°05'0 0.0
2014-Nov-21 18:33N 59°20' E 018°05'0 0.0
2014-Nov-21 17:32N 59°20' E 018°05'0 0.0
2014-Nov-21 16:32N 59°20' E 018°05'0 0.0
2014-Nov-21 15:33N 59°20' E 018°05'0 0.0
2014-Nov-21 14:33N 59°20' E 018°05'0 0.0
2014-Nov-21 13:33N 59°20' E 018°05'0 0.0
2014-Nov-21 12:33N 59°20' E 018°05'0 0.0
2014-Nov-21 11:33N 59°20' E 018°05'0 0.0
2014-Nov-21 10:32N 59°20' E 018°05'0 0.0
2014-Nov-21 09:33N 59°20' E 018°05'0 0.0
2014-Nov-21 08:32N 59°20' E 018°05'0 0.0
2014-Nov-21 07:33N 59°20' E 018°05'0 0.0
2014-Nov-21 06:33N 59°20' E 018°05'0 0.0
2014-Nov-21 05:31N 59°20' E 018°05'0 0.0
2014-Nov-21 04:32N 59°20' E 018°05'0 0.0
2014-Nov-21 03:32N 59°20' E 018°05'0 0.0
2014-Nov-21 02:32N 59°20' E 018°05'0 0.0
2014-Nov-21 01:33N 59°20' E 018°05'0 0.0
2014-Nov-21 00:33N 59°20' E 018°05'0 0.0
2014-Nov-20 23:32N 59°20' E 018°05'0 0.0
2014-Nov-20 22:32N 59°20' E 018°05'0 0.0
2014-Nov-20 21:33N 59°20' E 018°05'0 0.0
2014-Nov-20 20:33N 59°20' E 018°05'0 0.0
2014-Nov-20 19:33N 59°20' E 018°05'0 0.0
2014-Nov-20 18:33N 59°20' E 018°05'0 0.0
2014-Nov-20 17:33N 59°20' E 018°05'0 0.0
2014-Nov-20 16:33N 59°20' E 018°05'0 0.0
2014-Nov-20 15:33N 59°20' E 018°05'0 0.0
2014-Nov-20 14:32N 59°20' E 018°05'0 0.0
2014-Nov-20 13:32N 59°20' E 018°05'0 0.0
2014-Nov-20 12:33N 59°20' E 018°05'0 0.0
2014-Nov-20 11:33N 59°20' E 018°05'0 0.0
2014-Nov-20 10:33N 59°20' E 018°05'0 0.0
2014-Nov-20 09:33N 59°20' E 018°05'0 0.0
2014-Nov-20 08:33N 59°20' E 018°05'0 0.0
2014-Nov-20 07:33N 59°20' E 018°05'0 0.0
2014-Nov-20 06:31N 59°20' E 018°05'0 0.0
2014-Nov-20 05:33N 59°20' E 018°05'0 0.0
2014-Nov-20 04:33N 59°20' E 018°05'0 0.0
2014-Nov-20 03:33N 59°20' E 018°05'0 0.0
2014-Nov-20 02:33N 59°20' E 018°05'0 0.0
2014-Nov-20 01:33N 59°20' E 018°05'0 0.0
2014-Nov-20 00:33N 59°20' E 018°05'0 0.0
2014-Nov-19 23:33N 59°20' E 018°05'0 0.0
2014-Nov-19 22:33N 59°20' E 018°05'0 0.0
2014-Nov-19 21:33N 59°20' E 018°05'0 0.0
2014-Nov-19 20:33N 59°20' E 018°05'0 0.0
2014-Nov-19 19:32N 59°20' E 018°05'0 0.0
2014-Nov-19 18:33N 59°20' E 018°05'0 0.0
2014-Nov-19 17:33N 59°20' E 018°05'0 0.0
2014-Nov-19 16:33N 59°20' E 018°05'0 0.0
2014-Nov-19 15:33N 59°20' E 018°05'0 0.0
2014-Nov-19 14:33N 59°20' E 018°05'0 0.0
2014-Nov-19 13:33N 59°20' E 018°05'0 0.0
2014-Nov-19 12:33N 59°20' E 018°05'0 0.0
2014-Nov-19 11:33N 59°20' E 018°05'0 0.0
2014-Nov-19 10:33N 59°20' E 018°05'0 0.0
2014-Nov-19 09:32N 59°20' E 018°05'0 0.0
2014-Nov-19 08:33N 59°20' E 018°05'0 0.0
2014-Nov-19 07:33N 59°20' E 018°05'0 0.0
2014-Nov-19 06:33N 59°20' E 018°05'0 0.0
2014-Nov-19 05:33N 59°20' E 018°05'0 0.0
2014-Nov-19 04:33N 59°20' E 018°05'0 0.0
2014-Nov-19 03:33N 59°20' E 018°05'0 0.0
2014-Nov-19 02:33N 59°20' E 018°05'0 0.0
2014-Nov-19 01:32N 59°20' E 018°05'0 0.0
2014-Nov-19 00:32N 59°20' E 018°05'0 0.0
2014-Nov-18 23:33N 59°20' E 018°05'0 0.0
2014-Nov-18 22:33N 59°20' E 018°05'0 0.0
2014-Nov-18 21:33N 59°20' E 018°05'0 0.0
2014-Nov-18 20:33N 59°20' E 018°05'0 0.0
2014-Nov-18 19:32N 59°20' E 018°05'0 0.0
2014-Nov-18 18:33N 59°20' E 018°05'0 0.0
2014-Nov-18 17:33N 59°20' E 018°05'0 0.0
2014-Nov-18 16:32N 59°20' E 018°05'0 0.0
2014-Nov-18 15:33N 59°20' E 018°05'0 0.0
2014-Nov-18 14:33N 59°20' E 018°05'0 0.0
2014-Nov-18 13:33N 59°20' E 018°05'0 0.0
2014-Nov-18 12:33N 59°20' E 018°05'  

Dump ship's entire track history